Time;durP1;ratioP1;P1;durP2;ratioP2;P2;SDS_P1;SDS_P2;PMS_P1;PMS_P2;Temp;Humidity;BMP_temperature;BMP_pressure;BME280_temperature;BME280_humidity;BME280_pressure;Samples;Min_cycle;Max_cycle;Signal;HPM_P1;HPM_P2
2024/02/13 00:01:08;;;;;;;0.90;0.90;;;;;;;;;;5117711;28;20447;-63
2024/02/13 00:03:35;;;;;;;0.93;0.93;;;;;;;;;;5114955;27;20441;-62
2024/02/13 00:06:02;;;;;;;0.90;0.90;;;;;;;;;;5126896;27;20545;-63
2024/02/13 00:08:30;;;;;;;0.90;0.90;;;;;;;;;;5104885;27;21003;-62
2024/02/13 00:10:57;;;;;;;0.90;0.90;;;;;;;;;;5112253;28;20778;-62
2024/02/13 00:13:23;;;;;;;0.80;0.80;;;;;;;;;;5114256;27;20431;-62
2024/02/13 00:15:50;;;;;;;0.80;0.80;;;;;;;;;;5116609;28;20462;-61
2024/02/13 00:18:19;;;;;;;1.10;1.10;;;;;;;;;;5113919;28;20447;-62
2024/02/13 00:20:46;;;;;;;1.00;1.00;;;;;;;;;;5118052;28;20997;-62
2024/02/13 00:23:12;;;;;;;1.00;1.00;;;;;;;;;;5114434;28;20450;-62
2024/02/13 00:25:43;;;;;;;1.10;1.10;;;;;;;;;;5107727;28;20998;-61
2024/02/13 00:28:09;;;;;;;1.07;1.07;;;;;;;;;;5117394;28;20458;-61
2024/02/13 00:30:36;;;;;;;1.00;1.00;;;;;;;;;;5113411;28;20486;-63
2024/02/13 00:33:04;;;;;;;1.10;1.10;;;;;;;;;;5112221;28;20468;-62
2024/02/13 00:35:31;;;;;;;0.97;0.97;;;;;;;;;;5113697;28;21160;-62
2024/02/13 00:37:57;;;;;;;1.20;1.20;;;;;;;;;;5112141;28;20481;-62
2024/02/13 00:40:24;;;;;;;1.30;1.30;;;;;;;;;;5101908;28;20554;-61
2024/02/13 00:42:52;;;;;;;1.00;1.00;;;;;;;;;;5116348;28;20437;-62
2024/02/13 00:45:19;;;;;;;1.00;1.00;;;;;;;;;;5110711;27;20457;-60
2024/02/13 00:47:45;;;;;;;1.43;1.43;;;;;;;;;;5119974;27;20468;-62
2024/02/13 00:50:13;;;;;;;0.90;0.90;;;;;;;;;;5121184;27;21107;-62
2024/02/13 00:52:42;;;;;;;1.30;1.30;;;;;;;;;;5110864;27;20447;-61
2024/02/13 00:55:09;;;;;;;1.00;1.00;;;;;;;;;;5118139;27;20476;-62
2024/02/13 00:57:35;;;;;;;1.07;1.07;;;;;;;;;;5116418;27;20511;-63
2024/02/13 01:00:04;;;;;;;0.80;0.80;;;;;;;;;;5110461;27;20437;-63
2024/02/13 01:02:31;;;;;;;0.90;0.90;;;;;;;;;;5132594;27;20445;-59
2024/02/13 01:04:57;;;;;;;0.80;0.80;;;;;;;;;;5116297;27;20910;-62
2024/02/13 01:07:24;;;;;;;1.00;1.00;;;;;;;;;;5120022;27;20464;-61
2024/02/13 01:09:50;;;;;;;1.00;1.00;;;;;;;;;;5115069;27;20514;-62
2024/02/13 01:12:17;;;;;;;0.90;0.90;;;;;;;;;;5115742;27;20431;-62
2024/02/13 01:14:43;;;;;;;0.90;0.90;;;;;;;;;;5117403;27;20515;-60
2024/02/13 01:17:11;;;;;;;0.97;0.97;;;;;;;;;;5125211;27;20442;-61
2024/02/13 01:19:38;;;;;;;1.03;1.03;;;;;;;;;;5121259;28;20438;-61
2024/02/13 01:22:04;;;;;;;1.13;1.13;;;;;;;;;;5114131;27;20474;-61
2024/02/13 01:24:31;;;;;;;0.90;0.90;;;;;;;;;;5113162;27;20508;-63
2024/02/13 01:26:58;;;;;;;0.80;0.80;;;;;;;;;;5112947;27;20484;-59
2024/02/13 01:29:24;;;;;;;0.87;0.87;;;;;;;;;;5117332;27;20520;-62
2024/02/13 01:31:51;;;;;;;0.80;0.80;;;;;;;;;;5116495;27;20482;-62
2024/02/13 01:34:19;;;;;;;0.80;0.80;;;;;;;;;;5121039;27;20466;-61
2024/02/13 01:36:46;;;;;;;0.70;0.70;;;;;;;;;;5118780;27;20493;-62
2024/02/13 01:39:12;;;;;;;1.10;1.10;;;;;;;;;;5120486;27;20489;-62
2024/02/13 01:41:39;;;;;;;0.80;0.80;;;;;;;;;;5108660;27;20481;-60
2024/02/13 01:44:05;;;;;;;0.80;0.80;;;;;;;;;;5112353;27;20453;-62
2024/02/13 01:46:32;;;;;;;1.43;1.37;;;;;;;;;;5111393;27;20481;-61
2024/02/13 01:48:59;;;;;;;0.80;0.80;;;;;;;;;;5119190;27;20477;-61
2024/02/13 01:51:28;;;;;;;1.23;1.23;;;;;;;;;;5129968;27;20481;-62
2024/02/13 01:53:56;;;;;;;0.80;0.80;;;;;;;;;;5118041;27;20448;-61
2024/02/13 01:56:25;;;;;;;0.80;0.80;;;;;;;;;;5117032;27;20899;-61
2024/02/13 01:58:52;;;;;;;1.03;1.03;;;;;;;;;;5124620;27;20519;-63
2024/02/13 02:01:18;;;;;;;1.10;1.10;;;;;;;;;;5111063;27;20456;-61
2024/02/13 02:03:45;;;;;;;1.90;1.87;;;;;;;;;;5119601;27;20466;-62
2024/02/13 02:06:11;;;;;;;0.90;0.90;;;;;;;;;;5117280;27;20777;-62
2024/02/13 02:08:39;;;;;;;0.97;0.97;;;;;;;;;;5112297;27;20944;-60
2024/02/13 02:11:08;;;;;;;1.00;1.00;;;;;;;;;;5119405;27;20522;-60
2024/02/13 02:13:35;;;;;;;1.00;1.00;;;;;;;;;;5111676;27;20447;-61
2024/02/13 02:16:02;;;;;;;0.97;0.97;;;;;;;;;;5117000;27;20562;-62
2024/02/13 02:18:29;;;;;;;1.10;1.10;;;;;;;;;;5112917;27;20450;-62
2024/02/13 02:20:56;;;;;;;1.10;1.10;;;;;;;;;;5118844;27;20518;-61
2024/02/13 02:23:23;;;;;;;0.80;0.80;;;;;;;;;;5117214;27;20450;-63
2024/02/13 02:25:51;;;;;;;1.10;1.10;;;;;;;;;;5116018;27;20496;-62
2024/02/13 02:28:18;;;;;;;1.00;1.00;;;;;;;;;;5110359;27;20785;-63
2024/02/13 02:30:45;;;;;;;1.00;1.00;;;;;;;;;;5118464;27;20514;-60
2024/02/13 02:33:12;;;;;;;1.00;1.00;;;;;;;;;;5122759;27;20585;-62
2024/02/13 02:35:40;;;;;;;1.33;1.33;;;;;;;;;;5120145;27;20454;-61
2024/02/13 02:38:07;;;;;;;0.80;0.80;;;;;;;;;;5118857;27;20481;-63
2024/02/13 02:40:33;;;;;;;1.00;1.00;;;;;;;;;;5113591;27;20498;-61
2024/02/13 02:43:02;;;;;;;1.00;1.00;;;;;;;;;;5121404;27;20477;-61
2024/02/13 02:45:29;;;;;;;0.87;0.87;;;;;;;;;;5115251;27;20806;-61
2024/02/13 02:47:56;;;;;;;1.00;1.00;;;;;;;;;;5113461;27;20490;-62
2024/02/13 02:50:23;;;;;;;1.10;1.10;;;;;;;;;;5122094;27;20487;-61
2024/02/13 02:52:49;;;;;;;0.90;0.90;;;;;;;;;;5117210;27;20766;-61
2024/02/13 02:55:17;;;;;;;1.00;1.00;;;;;;;;;;5106467;27;20486;-60
2024/02/13 02:57:43;;;;;;;0.90;0.90;;;;;;;;;;5121434;27;20521;-62
2024/02/13 03:00:14;;;;;;;1.00;1.00;;;;;;;;;;5116773;27;20477;-60
2024/02/13 03:02:41;;;;;;;0.90;0.90;;;;;;;;;;5114658;27;20513;-61
2024/02/13 03:05:08;;;;;;;1.00;1.00;;;;;;;;;;5111919;27;20444;-62
2024/02/13 03:07:35;;;;;;;0.80;0.80;;;;;;;;;;5114445;27;20518;-60
2024/02/13 03:10:02;;;;;;;1.00;1.00;;;;;;;;;;5118384;27;20478;-63
2024/02/13 03:12:29;;;;;;;0.90;0.90;;;;;;;;;;5112357;27;20451;-62
2024/02/13 03:14:55;;;;;;;0.87;0.87;;;;;;;;;;5123313;27;20998;-61
2024/02/13 03:17:23;;;;;;;1.07;1.07;;;;;;;;;;5122831;27;20913;-60
2024/02/13 03:19:50;;;;;;;1.07;1.07;;;;;;;;;;5112238;27;20470;-59
2024/02/13 03:22:17;;;;;;;0.70;0.70;;;;;;;;;;5114087;27;20460;-61
2024/02/13 03:24:43;;;;;;;1.00;1.00;;;;;;;;;;5115441;27;20446;-60
2024/02/13 03:27:10;;;;;;;0.70;0.70;;;;;;;;;;5123416;27;20823;-63
2024/02/13 03:29:37;;;;;;;0.80;0.80;;;;;;;;;;5113462;28;20481;-61
2024/02/13 03:32:03;;;;;;;0.90;0.90;;;;;;;;;;5109457;27;20486;-62
2024/02/13 03:34:32;;;;;;;0.90;0.90;;;;;;;;;;5111290;27;20443;-62
2024/02/13 03:36:58;;;;;;;0.63;0.63;;;;;;;;;;5110334;27;20535;-61
2024/02/13 03:39:25;;;;;;;0.90;0.90;;;;;;;;;;5113637;27;20496;-58
2024/02/13 03:41:52;;;;;;;0.77;0.77;;;;;;;;;;5108206;28;20944;-61
2024/02/13 03:44:19;;;;;;;0.70;0.70;;;;;;;;;;5116815;27;20834;-63
2024/02/13 03:46:45;;;;;;;0.80;0.80;;;;;;;;;;5122649;27;20458;-60
2024/02/13 03:49:12;;;;;;;1.00;1.00;;;;;;;;;;5120865;27;20478;-60
2024/02/13 03:51:40;;;;;;;0.70;0.70;;;;;;;;;;5114481;27;20514;-60
2024/02/13 03:54:07;;;;;;;0.80;0.80;;;;;;;;;;5109072;28;20473;-60
2024/02/13 03:56:33;;;;;;;2.00;1.93;;;;;;;;;;5108089;28;20489;-61
2024/02/13 03:59:00;;;;;;;3.27;3.17;;;;;;;;;;5106279;28;20467;-63
2024/02/13 04:01:27;;;;;;;3.37;3.07;;;;;;;;;;5113475;27;20443;-60
2024/02/13 04:03:54;;;;;;;0.90;0.90;;;;;;;;;;5125599;27;20767;-61
2024/02/13 04:06:21;;;;;;;0.60;0.60;;;;;;;;;;5116230;27;20870;-62
2024/02/13 04:08:49;;;;;;;0.70;0.70;;;;;;;;;;5120907;27;20516;-61
2024/02/13 04:11:16;;;;;;;0.80;0.80;;;;;;;;;;5123942;27;21281;-60
2024/02/13 04:13:43;;;;;;;0.80;0.80;;;;;;;;;;5105806;27;20447;-61
2024/02/13 04:16:10;;;;;;;1.73;1.63;;;;;;;;;;5120655;28;20489;-64
2024/02/13 04:18:37;;;;;;;0.60;0.60;;;;;;;;;;5113384;28;20462;-60
2024/02/13 04:21:04;;;;;;;0.80;0.80;;;;;;;;;;5111945;28;20449;-60
2024/02/13 04:23:30;;;;;;;0.80;0.80;;;;;;;;;;5116555;28;20993;-62
2024/02/13 04:25:58;;;;;;;0.70;0.70;;;;;;;;;;5119128;28;20971;-58
2024/02/13 04:28:27;;;;;;;0.60;0.60;;;;;;;;;;5111078;28;20487;-63
2024/02/13 04:30:54;;;;;;;0.60;0.60;;;;;;;;;;5113218;28;20581;-59
2024/02/13 04:33:20;;;;;;;0.70;0.70;;;;;;;;;;5121658;28;20481;-61
2024/02/13 04:35:47;;;;;;;0.90;0.90;;;;;;;;;;5108096;28;20473;-61
2024/02/13 04:38:14;;;;;;;0.60;0.60;;;;;;;;;;5112359;28;20530;-63
2024/02/13 04:40:40;;;;;;;0.80;0.80;;;;;;;;;;5106869;28;20508;-61
2024/02/13 04:43:08;;;;;;;0.63;0.63;;;;;;;;;;5111563;28;20445;-61
2024/02/13 04:45:34;;;;;;;0.70;0.70;;;;;;;;;;5110743;28;20455;-64
2024/02/13 04:48:02;;;;;;;0.70;0.70;;;;;;;;;;5113783;28;20449;-60
2024/02/13 04:50:29;;;;;;;0.80;0.80;;;;;;;;;;5108379;28;20506;-61
2024/02/13 04:52:56;;;;;;;0.70;0.70;;;;;;;;;;5117778;28;20466;-61
2024/02/13 04:55:22;;;;;;;0.60;0.60;;;;;;;;;;5121762;28;20489;-60
2024/02/13 04:57:49;;;;;;;0.60;0.60;;;;;;;;;;5107264;28;20455;-59
2024/02/13 05:00:24;;;;;;;0.63;0.63;;;;;;;;;;5103017;28;20454;-61
2024/02/13 05:03:01;;;;;;;0.60;0.60;;;;;;;;;;5113522;28;20488;-62
2024/02/13 05:08:11;;;;;;;0.77;0.77;;;;;;;;;;5118761;28;20444;-62
2024/02/13 05:10:38;;;;;;;0.97;0.97;;;;;;;;;;5114516;28;20516;-61
2024/02/13 05:13:04;;;;;;;1.17;1.17;;;;;;;;;;5120246;28;20483;-61
2024/02/13 05:15:32;;;;;;;0.60;0.60;;;;;;;;;;5107393;28;20485;-59
2024/02/13 05:17:58;;;;;;;0.80;0.80;;;;;;;;;;5117039;28;20846;-61
2024/02/13 05:20:25;;;;;;;0.60;0.60;;;;;;;;;;5109609;28;20455;-61
2024/02/13 05:22:53;;;;;;;0.60;0.60;;;;;;;;;;5112380;28;20893;-60
2024/02/13 05:25:19;;;;;;;0.60;0.60;;;;;;;;;;5107082;28;20464;-62
2024/02/13 05:27:48;;;;;;;0.50;0.50;;;;;;;;;;5110425;28;20488;-58
2024/02/13 05:30:15;;;;;;;0.60;0.60;;;;;;;;;;5103416;28;20454;-62
2024/02/13 05:32:43;;;;;;;0.60;0.60;;;;;;;;;;5115664;28;20481;-61
2024/02/13 05:35:10;;;;;;;0.60;0.60;;;;;;;;;;5125465;27;20477;-61
2024/02/13 05:37:37;;;;;;;0.60;0.60;;;;;;;;;;5112364;27;20512;-61
2024/02/13 05:40:05;;;;;;;0.50;0.50;;;;;;;;;;5107519;27;20481;-59
2024/02/13 05:42:31;;;;;;;0.60;0.60;;;;;;;;;;5110489;27;20549;-61
2024/02/13 05:44:58;;;;;;;0.73;0.73;;;;;;;;;;5105242;28;20473;-62
2024/02/13 05:47:31;;;;;;;0.70;0.70;;;;;;;;;;5119835;27;20458;-59
2024/02/13 05:50:00;;;;;;;0.70;0.70;;;;;;;;;;5113192;28;20468;-61
2024/02/13 05:52:27;;;;;;;0.60;0.60;;;;;;;;;;5109343;27;20521;-60
2024/02/13 05:54:54;;;;;;;0.60;0.60;;;;;;;;;;5117818;27;20492;-60
2024/02/13 05:57:20;;;;;;;0.70;0.70;;;;;;;;;;5122460;27;20478;-59
2024/02/13 05:59:47;;;;;;;0.63;0.63;;;;;;;;;;5110271;27;20459;-58
2024/02/13 06:02:13;;;;;;;0.50;0.50;;;;;;;;;;5117502;27;20485;-61
2024/02/13 06:04:40;;;;;;;0.70;0.70;;;;;;;;;;5115641;28;20482;-60
2024/02/13 06:07:09;;;;;;;0.63;0.63;;;;;;;;;;5121290;27;20454;-61
2024/02/13 06:09:35;;;;;;;0.60;0.60;;;;;;;;;;5116175;28;20462;-67
2024/02/13 06:12:02;;;;;;;0.80;0.80;;;;;;;;;;5104998;27;20509;-66
2024/02/13 06:14:28;;;;;;;0.60;0.60;;;;;;;;;;5108565;28;20483;-67
2024/02/13 06:16:56;;;;;;;0.77;0.77;;;;;;;;;;5119545;27;20493;-66
2024/02/13 06:19:24;;;;;;;0.70;0.70;;;;;;;;;;5117322;28;20497;-66
2024/02/13 06:21:51;;;;;;;0.70;0.70;;;;;;;;;;5117705;27;20466;-65
2024/02/13 06:24:19;;;;;;;0.70;0.70;;;;;;;;;;5125499;27;20471;-66
2024/02/13 06:26:48;;;;;;;0.70;0.70;;;;;;;;;;5109896;27;20454;-62
2024/02/13 06:29:15;;;;;;;0.70;0.70;;;;;;;;;;5113920;27;20511;-65
2024/02/13 06:31:42;;;;;;;0.80;0.80;;;;;;;;;;5118515;28;20489;-66
2024/02/13 06:34:08;;;;;;;0.60;0.60;;;;;;;;;;5113098;28;20482;-65
2024/02/13 06:36:35;;;;;;;0.90;0.90;;;;;;;;;;5107986;27;20456;-67
2024/02/13 06:39:02;;;;;;;0.70;0.70;;;;;;;;;;5107122;28;20878;-66
2024/02/13 06:41:30;;;;;;;0.60;0.60;;;;;;;;;;5106936;28;20467;-66
2024/02/13 06:43:57;;;;;;;0.70;0.70;;;;;;;;;;5101798;28;20473;-67
2024/02/13 06:46:23;;;;;;;0.90;0.90;;;;;;;;;;5108608;27;20479;-65
2024/02/13 06:48:53;;;;;;;0.80;0.80;;;;;;;;;;5115151;27;20454;-67
2024/02/13 06:51:19;;;;;;;0.80;0.80;;;;;;;;;;5108058;28;20495;-64
2024/02/13 06:53:46;;;;;;;0.90;0.90;;;;;;;;;;5101441;28;20475;-67
2024/02/13 06:56:14;;;;;;;0.90;0.90;;;;;;;;;;5115346;28;20450;-65
2024/02/13 06:58:42;;;;;;;1.03;1.03;;;;;;;;;;5106412;27;20553;-66
2024/02/13 07:01:09;;;;;;;0.83;0.83;;;;;;;;;;5108517;28;20446;-65
2024/02/13 07:03:36;;;;;;;0.80;0.80;;;;;;;;;;5113119;28;20541;-66
2024/02/13 07:06:04;;;;;;;0.80;0.80;;;;;;;;;;5110673;28;20446;-68
2024/02/13 07:08:30;;;;;;;1.00;1.00;;;;;;;;;;5109557;27;20497;-67
2024/02/13 07:10:57;;;;;;;1.00;1.00;;;;;;;;;;5107615;28;20456;-65
2024/02/13 07:13:24;;;;;;;1.00;1.00;;;;;;;;;;5103369;28;20790;-66
2024/02/13 07:15:52;;;;;;;0.90;0.90;;;;;;;;;;5112072;28;20482;-67
2024/02/13 07:18:18;;;;;;;1.20;1.20;;;;;;;;;;5104969;27;20455;-66
2024/02/13 07:20:45;;;;;;;1.23;1.23;;;;;;;;;;5098554;28;20455;-67
2024/02/13 07:23:11;;;;;;;1.60;1.60;;;;;;;;;;5109362;28;20564;-66
2024/02/13 07:25:38;;;;;;;1.10;1.10;;;;;;;;;;5107180;28;20469;-66
2024/02/13 07:28:04;;;;;;;1.00;1.00;;;;;;;;;;5109699;27;20450;-68
2024/02/13 07:30:31;;;;;;;1.20;1.20;;;;;;;;;;5115938;28;20450;-68
2024/02/13 07:32:59;;;;;;;1.13;1.13;;;;;;;;;;5109528;28;20992;-67
2024/02/13 07:35:26;;;;;;;1.30;1.30;;;;;;;;;;5112131;28;20475;-65
2024/02/13 07:37:53;;;;;;;1.50;1.50;;;;;;;;;;5107407;27;20490;-65
2024/02/13 07:40:19;;;;;;;1.10;1.10;;;;;;;;;;5093150;28;20488;-68
2024/02/13 07:42:48;;;;;;;1.07;1.07;;;;;;;;;;5086028;28;20838;-63
2024/02/13 07:45:15;;;;;;;1.10;1.10;;;;;;;;;;5097037;28;20455;-64
2024/02/13 07:47:41;;;;;;;1.20;1.20;;;;;;;;;;5085057;28;20494;-65
2024/02/13 07:50:09;;;;;;;1.20;1.20;;;;;;;;;;5089861;28;20471;-64
2024/02/13 07:52:36;;;;;;;1.17;1.17;;;;;;;;;;5085969;28;20497;-61
2024/02/13 07:55:04;;;;;;;1.20;1.20;;;;;;;;;;5079816;28;20540;-61
2024/02/13 07:57:32;;;;;;;1.20;1.20;;;;;;;;;;5092217;28;20550;-61
2024/02/13 07:59:59;;;;;;;1.13;1.13;;;;;;;;;;5080946;28;20491;-60
2024/02/13 08:02:26;;;;;;;1.20;1.20;;;;;;;;;;5082005;28;20447;-62
2024/02/13 08:04:52;;;;;;;1.10;1.10;;;;;;;;;;5092073;28;20455;-61
2024/02/13 08:07:20;;;;;;;1.23;1.23;;;;;;;;;;5084929;28;20483;-60
2024/02/13 08:09:47;;;;;;;1.10;1.10;;;;;;;;;;5076189;28;20501;-60
2024/02/13 08:12:15;;;;;;;1.50;1.50;;;;;;;;;;5088877;28;20491;-61
2024/02/13 08:14:41;;;;;;;1.20;1.20;;;;;;;;;;5092622;28;20454;-60
2024/02/13 08:17:08;;;;;;;1.30;1.30;;;;;;;;;;5090628;28;20486;-63
2024/02/13 08:19:35;;;;;;;1.20;1.20;;;;;;;;;;5082926;28;20475;-62
2024/02/13 08:22:01;;;;;;;1.40;1.40;;;;;;;;;;5090441;28;20447;-61
2024/02/13 08:24:30;;;;;;;1.30;1.30;;;;;;;;;;5081661;28;20512;-62
2024/02/13 08:26:56;;;;;;;1.10;1.10;;;;;;;;;;5092810;28;20446;-60
2024/02/13 08:29:22;;;;;;;4.93;4.50;;;;;;;;;;5084340;28;20473;-62
2024/02/13 08:31:50;;;;;;;1.20;1.20;;;;;;;;;;5093406;28;20556;-62
2024/02/13 08:34:17;;;;;;;1.40;1.40;;;;;;;;;;5083725;28;20448;-64
2024/02/13 08:36:45;;;;;;;1.27;1.27;;;;;;;;;;5088159;28;20447;-63
2024/02/13 08:39:11;;;;;;;1.50;1.50;;;;;;;;;;5097048;28;20503;-66
2024/02/13 08:41:40;;;;;;;1.10;1.10;;;;;;;;;;5088544;28;20463;-65
2024/02/13 08:44:07;;;;;;;1.33;1.33;;;;;;;;;;5087652;28;20529;-64
2024/02/13 08:46:34;;;;;;;1.00;1.00;;;;;;;;;;5081257;28;20627;-66
2024/02/13 08:49:00;;;;;;;1.33;1.33;;;;;;;;;;5086803;28;21047;-63
2024/02/13 08:51:27;;;;;;;1.33;1.33;;;;;;;;;;5091299;28;20471;-65
2024/02/13 08:53:56;;;;;;;1.33;1.33;;;;;;;;;;5087236;28;20558;-64
2024/02/13 08:56:22;;;;;;;1.30;1.30;;;;;;;;;;5094608;28;20463;-64
2024/02/13 08:58:52;;;;;;;1.20;1.20;;;;;;;;;;5085748;28;21044;-67
2024/02/13 09:01:20;;;;;;;1.30;1.30;;;;;;;;;;5090214;28;20459;-63
2024/02/13 09:03:47;;;;;;;1.73;1.73;;;;;;;;;;5092590;28;20573;-62
2024/02/13 09:06:16;;;;;;;1.40;1.40;;;;;;;;;;5091763;28;20474;-64
2024/02/13 09:08:43;;;;;;;1.40;1.40;;;;;;;;;;5096689;28;20579;-63
2024/02/13 09:11:12;;;;;;;1.67;1.67;;;;;;;;;;5092390;28;20462;-64
2024/02/13 09:13:38;;;;;;;1.53;1.53;;;;;;;;;;5087101;28;20809;-65
2024/02/13 09:16:08;;;;;;;1.30;1.30;;;;;;;;;;5092662;28;20507;-63
2024/02/13 09:18:34;;;;;;;1.30;1.30;;;;;;;;;;5091602;28;20456;-65
2024/02/13 09:21:01;;;;;;;1.70;1.70;;;;;;;;;;5090824;28;20532;-64
2024/02/13 09:23:30;;;;;;;2.00;1.93;;;;;;;;;;5083393;28;20936;-65
2024/02/13 09:25:56;;;;;;;1.60;1.60;;;;;;;;;;5090856;28;20455;-62
2024/02/13 09:28:23;;;;;;;2.70;2.50;;;;;;;;;;5098486;28;20459;-67
2024/02/13 09:30:50;;;;;;;1.70;1.70;;;;;;;;;;5093828;28;20479;-64
2024/02/13 09:33:20;;;;;;;2.10;2.00;;;;;;;;;;5096198;28;20479;-66
2024/02/13 09:35:49;;;;;;;1.60;1.60;;;;;;;;;;5091854;28;20443;-63
2024/02/13 09:38:15;;;;;;;2.27;2.17;;;;;;;;;;5097755;28;20459;-64
2024/02/13 09:40:42;;;;;;;1.70;1.70;;;;;;;;;;5105133;28;20510;-61
2024/02/13 09:43:09;;;;;;;2.23;2.13;;;;;;;;;;5116903;28;20450;-63
2024/02/13 09:45:39;;;;;;;2.30;2.20;;;;;;;;;;5119147;28;20460;-62
2024/02/13 09:48:08;;;;;;;2.30;2.20;;;;;;;;;;5119882;27;20462;-63
2024/02/13 09:50:38;;;;;;;2.13;2.03;;;;;;;;;;5107052;28;20484;-63
2024/02/13 09:53:08;;;;;;;2.30;2.20;;;;;;;;;;5110670;28;20620;-62
2024/02/13 09:55:35;;;;;;;1.97;1.87;;;;;;;;;;5110805;28;20494;-62
2024/02/13 09:58:02;;;;;;;2.17;2.07;;;;;;;;;;5106346;27;20454;-64
2024/02/13 10:00:30;;;;;;;2.10;2.00;;;;;;;;;;5104420;27;20847;-67
2024/02/13 10:02:57;;;;;;;2.43;2.33;;;;;;;;;;5112703;28;20454;-62
2024/02/13 10:05:24;;;;;;;3.17;3.07;;;;;;;;;;5119791;28;20446;-65
2024/02/13 10:07:52;;;;;;;2.47;2.37;;;;;;;;;;5111252;27;20463;-64
2024/02/13 10:10:18;;;;;;;3.10;3.00;;;;;;;;;;5116695;28;20454;-65
2024/02/13 10:12:49;;;;;;;2.90;2.80;;;;;;;;;;5110226;28;20509;-64
2024/02/13 10:15:16;;;;;;;3.10;3.00;;;;;;;;;;5105871;28;20442;-63
2024/02/13 10:17:44;;;;;;;3.00;2.90;;;;;;;;;;5104096;27;20479;-63
2024/02/13 10:20:12;;;;;;;3.20;3.10;;;;;;;;;;5101502;28;20443;-64
2024/02/13 10:22:44;;;;;;;3.20;3.10;;;;;;;;;;5105552;28;20485;-65
2024/02/13 10:25:12;;;;;;;3.20;3.10;;;;;;;;;;5107868;28;20459;-64
2024/02/13 10:27:40;;;;;;;3.13;3.03;;;;;;;;;;5120014;27;20938;-61
2024/02/13 10:30:07;;;;;;;2.93;2.83;;;;;;;;;;5111781;28;20464;-63
2024/02/13 10:32:38;;;;;;;3.23;3.13;;;;;;;;;;5118952;28;20657;-64
2024/02/13 10:35:09;;;;;;;2.73;2.63;;;;;;;;;;5114242;28;20438;-63
2024/02/13 10:37:36;;;;;;;3.40;3.30;;;;;;;;;;5111093;27;20848;-63
2024/02/13 10:40:05;;;;;;;3.03;2.93;;;;;;;;;;5113271;28;20475;-66
2024/02/13 10:42:37;;;;;;;3.50;3.40;;;;;;;;;;5114104;28;20466;-64
2024/02/13 10:45:07;;;;;;;4.80;4.50;;;;;;;;;;5112142;28;20446;-64
2024/02/13 10:47:36;;;;;;;5.63;5.43;;;;;;;;;;5119396;27;20462;-66
2024/02/13 10:50:04;;;;;;;3.27;3.17;;;;;;;;;;5109024;28;20431;-64
2024/02/13 10:52:32;;;;;;;3.80;3.70;;;;;;;;;;5102328;28;20490;-65
2024/02/13 10:55:03;;;;;;;3.53;3.43;;;;;;;;;;5110791;28;20546;-65
2024/02/13 10:57:30;;;;;;;3.20;3.10;;;;;;;;;;5109180;27;20526;-67
2024/02/13 10:59:59;;;;;;;3.07;2.97;;;;;;;;;;5112144;28;20458;-68
2024/02/13 11:02:28;;;;;;;3.07;2.97;;;;;;;;;;5117283;28;20469;-67
2024/02/13 11:04:55;;;;;;;2.40;2.30;;;;;;;;;;5109355;28;20442;-69
2024/02/13 11:07:22;;;;;;;2.80;2.70;;;;;;;;;;5116270;27;20575;-67
2024/02/13 11:09:53;;;;;;;2.33;2.23;;;;;;;;;;5111096;27;20482;-70
2024/02/13 11:12:19;;;;;;;2.10;2.00;;;;;;;;;;5116507;28;20458;-66
2024/02/13 11:14:48;;;;;;;4.47;4.37;;;;;;;;;;5115964;28;20456;-69
2024/02/13 11:17:16;;;;;;;3.77;3.67;;;;;;;;;;5111745;28;20465;-66
2024/02/13 11:19:44;;;;;;;3.00;2.90;;;;;;;;;;5108186;28;20467;-69
2024/02/13 11:22:11;;;;;;;3.87;3.77;;;;;;;;;;5117849;28;20454;-67
2024/02/13 11:24:41;;;;;;;3.40;3.30;;;;;;;;;;5115912;28;20533;-69
2024/02/13 11:27:08;;;;;;;3.30;3.20;;;;;;;;;;5109629;28;20462;-69
2024/02/13 11:29:34;;;;;;;2.97;2.87;;;;;;;;;;5107587;28;20466;-69
2024/02/13 11:32:03;;;;;;;2.90;2.80;;;;;;;;;;5114331;28;20458;-77
2024/02/13 11:34:41;;;;;;;3.10;3.00;;;;;;;;;;5111279;28;20489;-73
2024/02/13 11:37:17;;;;;;;2.80;2.70;;;;;;;;;;5103198;28;20454;-72
2024/02/13 11:39:43;;;;;;;3.50;3.40;;;;;;;;;;5103500;28;20482;-69
2024/02/13 11:42:17;;;;;;;3.10;3.00;;;;;;;;;;5112722;28;20473;-71
2024/02/13 11:44:44;;;;;;;3.40;3.30;;;;;;;;;;5109633;28;20434;-71
2024/02/13 11:47:10;;;;;;;3.30;3.20;;;;;;;;;;5111515;27;20500;-71
2024/02/13 11:49:37;;;;;;;2.93;2.83;;;;;;;;;;5110903;28;20455;-70
2024/02/13 11:52:05;;;;;;;3.57;3.47;;;;;;;;;;5116739;28;20490;-70
2024/02/13 11:54:35;;;;;;;3.40;3.30;;;;;;;;;;5108226;28;20545;-73
2024/02/13 11:57:01;;;;;;;3.30;3.20;;;;;;;;;;5115474;28;20446;-72
2024/02/13 11:59:29;;;;;;;3.40;3.30;;;;;;;;;;5110107;27;20450;-71
2024/02/13 12:01:56;;;;;;;3.10;3.00;;;;;;;;;;5109785;28;20454;-76
2024/02/13 12:04:23;;;;;;;3.60;3.50;;;;;;;;;;5116261;28;20530;-76
2024/02/13 12:06:51;;;;;;;3.50;3.40;;;;;;;;;;5105496;28;21321;-72
2024/02/13 12:09:19;;;;;;;3.50;3.40;;;;;;;;;;5113721;28;20455;-76
2024/02/13 12:11:46;;;;;;;3.33;3.23;;;;;;;;;;5114733;28;20484;-75
2024/02/13 12:14:13;;;;;;;3.00;2.90;;;;;;;;;;5101597;28;20479;-75
2024/02/13 12:16:40;;;;;;;3.47;3.37;;;;;;;;;;5117354;28;20951;-77
2024/02/13 12:19:08;;;;;;;3.20;3.10;;;;;;;;;;5107261;28;20451;-77
2024/02/13 12:21:34;;;;;;;3.20;3.10;;;;;;;;;;5111374;28;20514;-76
2024/02/13 12:24:01;;;;;;;3.50;3.40;;;;;;;;;;5102206;28;20435;-77
2024/02/13 12:26:29;;;;;;;3.53;3.43;;;;;;;;;;5109964;28;20454;-75
2024/02/13 12:28:57;;;;;;;3.40;3.30;;;;;;;;;;5111038;28;20459;-74
2024/02/13 12:31:24;;;;;;;3.20;3.10;;;;;;;;;;5104950;28;20515;-73
2024/02/13 12:34:00;;;;;;;3.37;3.27;;;;;;;;;;5115820;28;20494;-76
2024/02/13 12:36:27;;;;;;;3.83;3.73;;;;;;;;;;5110129;28;21007;-75
2024/02/13 12:39:01;;;;;;;3.60;3.50;;;;;;;;;;5108518;28;20463;-78
2024/02/13 12:41:29;;;;;;;3.70;3.60;;;;;;;;;;5107912;28;20484;-79
2024/02/13 12:43:57;;;;;;;3.23;3.13;;;;;;;;;;5115788;28;20797;-78
2024/02/13 12:46:27;;;;;;;3.50;3.40;;;;;;;;;;5115448;27;20447;-78
2024/02/13 12:48:56;;;;;;;3.03;2.93;;;;;;;;;;5116665;28;20453;-76
2024/02/13 12:51:23;;;;;;;3.20;3.10;;;;;;;;;;5119201;28;20500;-76
2024/02/13 12:53:51;;;;;;;3.40;3.30;;;;;;;;;;5108341;28;20647;-74
2024/02/13 12:56:17;;;;;;;3.50;3.40;;;;;;;;;;5118672;27;20482;-76
2024/02/13 12:58:51;;;;;;;3.30;3.20;;;;;;;;;;5117708;28;20461;-75
2024/02/13 13:01:22;;;;;;;3.50;3.40;;;;;;;;;;5110602;28;20490;-77
2024/02/13 13:03:48;;;;;;;3.33;3.23;;;;;;;;;;5111262;28;20532;-76
2024/02/13 13:06:18;;;;;;;3.50;3.40;;;;;;;;;;5115929;27;20454;-74
2024/02/13 13:08:47;;;;;;;3.77;3.67;;;;;;;;;;5115875;28;20460;-73
2024/02/13 13:11:14;;;;;;;3.77;3.67;;;;;;;;;;5101696;28;20451;-72
2024/02/13 13:13:41;;;;;;;4.00;3.90;;;;;;;;;;5119906;28;20753;-73
2024/02/13 13:16:11;;;;;;;4.23;4.13;;;;;;;;;;5110291;27;20451;-74
2024/02/13 13:18:38;;;;;;;3.80;3.70;;;;;;;;;;5109062;28;20446;-79
2024/02/13 13:21:05;;;;;;;3.73;3.63;;;;;;;;;;5119195;28;20561;-77
2024/02/13 13:23:31;;;;;;;4.30;4.20;;;;;;;;;;5120024;28;20462;-79
2024/02/13 13:25:58;;;;;;;4.10;4.00;;;;;;;;;;5125118;27;20478;-73
2024/02/13 13:28:28;;;;;;;4.43;4.33;;;;;;;;;;5106783;28;20457;-76
2024/02/13 13:30:57;;;;;;;4.13;4.03;;;;;;;;;;5110509;28;20471;-73
2024/02/13 13:33:27;;;;;;;5.10;4.90;;;;;;;;;;5123173;27;20490;-74
2024/02/13 13:35:54;;;;;;;3.90;3.80;;;;;;;;;;5119978;27;20862;-76
2024/02/13 13:38:21;;;;;;;4.10;4.00;;;;;;;;;;5118504;27;20461;-76
2024/02/13 13:40:47;;;;;;;3.30;3.20;;;;;;;;;;5117491;27;20539;-76
2024/02/13 13:43:15;;;;;;;3.50;3.40;;;;;;;;;;5118837;27;20482;-77
2024/02/13 13:45:54;;;;;;;3.47;3.37;;;;;;;;;;5116175;27;20480;-70
2024/02/13 13:48:21;;;;;;;3.60;3.50;;;;;;;;;;5114803;27;20461;-73
2024/02/13 13:50:49;;;;;;;3.63;3.53;;;;;;;;;;5113552;27;20441;-72
2024/02/13 13:53:16;;;;;;;4.20;4.10;;;;;;;;;;5113683;27;20508;-69
2024/02/13 13:55:43;;;;;;;4.13;4.03;;;;;;;;;;5115935;27;20449;-75
2024/02/13 13:58:10;;;;;;;3.80;3.70;;;;;;;;;;5123883;27;20462;-68
2024/02/13 14:00:37;;;;;;;3.87;3.77;;;;;;;;;;5103128;28;20447;-70
2024/02/13 14:03:06;;;;;;;4.10;4.00;;;;;;;;;;5117092;27;20508;-71
2024/02/13 14:05:33;;;;;;;4.10;4.00;;;;;;;;;;5128013;27;20445;-71
2024/02/13 14:08:03;;;;;;;4.00;3.90;;;;;;;;;;5123946;27;20494;-70
2024/02/13 14:10:29;;;;;;;4.17;4.07;;;;;;;;;;5104703;28;20455;-71
2024/02/13 14:12:56;;;;;;;3.73;3.63;;;;;;;;;;5106002;27;20462;-72
2024/02/13 14:15:24;;;;;;;3.23;3.13;;;;;;;;;;5131924;27;20518;-75
2024/02/13 14:17:50;;;;;;;3.27;3.17;;;;;;;;;;5111825;28;20919;-72
2024/02/13 14:20:17;;;;;;;3.30;3.20;;;;;;;;;;5124592;27;20450;-69
2024/02/13 14:22:45;;;;;;;3.10;3.00;;;;;;;;;;5122321;27;20457;-71
2024/02/13 14:25:13;;;;;;;3.20;3.10;;;;;;;;;;5121787;27;20461;-68
2024/02/13 14:27:39;;;;;;;3.60;3.50;;;;;;;;;;5108867;27;21138;-72
2024/02/13 14:30:07;;;;;;;3.50;3.40;;;;;;;;;;5115695;27;20461;-69
2024/02/13 14:32:34;;;;;;;3.73;3.63;;;;;;;;;;5117490;27;20510;-69
2024/02/13 14:35:01;;;;;;;4.17;4.07;;;;;;;;;;5114394;27;21057;-67
2024/02/13 14:37:28;;;;;;;4.07;3.97;;;;;;;;;;5110596;27;20477;-68
2024/02/13 14:39:55;;;;;;;3.80;3.70;;;;;;;;;;5116375;28;20701;-69
2024/02/13 14:42:23;;;;;;;4.20;4.10;;;;;;;;;;5112405;28;20442;-69
2024/02/13 14:44:50;;;;;;;4.10;4.00;;;;;;;;;;5121979;27;20447;-68
2024/02/13 14:47:18;;;;;;;3.90;3.80;;;;;;;;;;5127602;27;20482;-71